Coe Hill, Canada
Current Conditions -  °F | °C
As of 12:14 PM on Thursday 30 Oct 2014 (Local Time) from CYPQ Reporting Station
Overcast Overcast  
Wind Chill: 36°   Ceiling: 3000
Heat Index: 43°   Visibility: 9mi
Dew Point: 34°   Wind: 13mph
Humidity: 70%   Direction: 290°WNW
Pressure: 30.06"   Gusts: NA
Location:  44.85°N, 77.83°W
Report Text: CYPQ 301614Z AUTO 29011KT 9SM OVC030 06/01 A3006 RMK WSHFT AT 1600Z SLP184
Loading
Personal Weather Stations






























Interactive Weather Map
Tropical Storm Tracking
New forecast layout! Learn more

10-Day Weather Forecast

Advertisements
Track Severe Weather on mobile